Jacksonville International Airport
KJAX : now visible

Airfield :











YOU CAN JOIN US ON...

 
LOGIN :

Register | Disclaimer

   EN    FR    IT 

 









Legend :    VFR   Marginal VFR   IFR   Intensive IFR   Very Intensive IFR
Visi :
Ceiling :
>= 8 km
>= 3000ft
5 to 8 km
1000 to 3000 ft
1500m to 5 km
500 to 1000 ft
800 to 1500m
200 to 500 ft
< 800m
< 200 ft
Symbols :   Thunderstorms  Fog  Heavy snow  Heavy precipitations  Wind > 20 kt






- Airport Elevation : 30 ft
- IATA code : JAX


KJAX - Jacksonville International

CURRENT METAR :
  • 140656Z 03012KT 10SM BKN012 BKN250 11/07 A3018 RMK AO2 SLP219 T01060072 $

EXPIRED METARs :
  • 140556Z 03015KT 10SM BKN015 BKN250 11/07 A3018 RMK AO2 SLP221 T01060072 10106 20072 $
  • 140456Z 03008KT 10SM FEW050 SCT250 08/05 A3020 RMK AO2 SLP227 T00780050 401390072 $

TAF KJAX
Valid from the 14 at 06:00 until the 15 at 06:00 UTC


140520Z 1406/1506 01007KT P6SM SCT008 BKN015 BKN060
FM141400 04010KT P6SM SCT015 BKN025 OVC070
FM142100 04010KT P6SM VCSH OVC015



MET'MAP, your aeronautical weather chart ! - Copyright ORBIFLY December 2007 - Disclaimer

ORBIFLY MET'MAP TEAM :

Programming & Development : Alexandra Zaïnal
Concept & Development : Baudouin d'Aumeries
Co-Development & Prog : Marc-Olivier Méhu
Technical & hardware support : Manuel Goepfert

Contact : metmap@orbifly.com




SOURCES & CREDITS :

   NOAA       Earth
Advisory